Time;durP1;ratioP1;P1;durP2;ratioP2;P2;SDS_P1;SDS_P2;PMS_P1;PMS_P2;Temp;Humidity;BMP_temperature;BMP_pressure;BME280_temperature;BME280_humidity;BME280_pressure;Samples;Min_cycle;Max_cycle;Signal;HPM_P1;HPM_P2
2021/05/25 00:01:41;;;;;;;2.38;1.73;;;;;;;14.74;58.73;100980.19;5019022;28;20344;-48
2021/05/25 00:04:07;;;;;;;5.65;2.28;;;;;;;14.76;58.74;100975.31;5016803;28;20116;-47
2021/05/25 00:06:32;;;;;;;3.05;1.90;;;;;;;14.76;58.89;100972.63;5003649;28;20487;-47
2021/05/25 00:08:58;;;;;;;3.17;2.15;;;;;;;14.78;58.94;100975.84;5017622;28;20035;-46
2021/05/25 00:11:23;;;;;;;4.32;2.15;;;;;;;14.80;58.88;100979.09;5074095;22;20131;-51
2021/05/25 00:13:49;;;;;;;3.40;1.92;;;;;;;14.81;58.89;100974.50;5071037;28;20736;-49
2021/05/25 00:16:14;;;;;;;3.67;2.22;;;;;;;14.90;58.55;100978.28;5073854;28;20429;-52
2021/05/25 00:18:41;;;;;;;2.85;1.73;;;;;;;14.91;58.55;100974.50;5075555;28;20024;-49
2021/05/25 00:21:07;;;;;;;4.93;2.00;;;;;;;14.92;58.57;100973.44;5073541;28;20401;-52
2021/05/25 00:23:32;;;;;;;4.47;1.98;;;;;;;14.95;58.58;100958.59;5057302;28;20035;-49
2021/05/25 00:25:58;;;;;;;5.60;2.72;;;;;;;14.85;59.05;100972.88;5070974;28;20058;-49
2021/05/25 00:28:23;;;;;;;4.38;1.98;;;;;;;14.82;59.46;100974.22;5073369;28;20098;-50
2021/05/25 00:30:49;;;;;;;3.03;2.22;;;;;;;14.87;59.08;100967.22;5070154;28;20024;-50
2021/05/25 00:33:16;;;;;;;4.57;2.10;;;;;;;14.87;59.26;100972.59;5060601;28;20020;-51
2021/05/25 00:35:41;;;;;;;6.32;2.40;;;;;;;14.82;59.53;100971.53;5072149;28;20032;-50
2021/05/25 00:38:09;;;;;;;4.05;2.25;;;;;;;14.81;59.65;100974.50;5070720;28;20309;-49
2021/05/25 00:40:35;;;;;;;6.35;2.00;;;;;;;14.74;60.00;100972.09;5071461;28;20470;-49
2021/05/25 00:43:01;;;;;;;4.10;1.83;;;;;;;14.78;60.20;100967.75;5073936;28;20039;-51
2021/05/25 00:45:26;;;;;;;3.22;2.33;;;;;;;14.73;60.21;100964.28;5072778;28;20127;-49
2021/05/25 00:47:52;;;;;;;3.60;1.80;;;;;;;14.77;60.22;100962.63;5075427;28;20031;-48
2021/05/25 00:50:22;;;;;;;3.83;2.10;;;;;;;14.71;60.80;100961.00;5070157;28;21637;-52
2021/05/25 00:52:53;;;;;;;6.32;1.92;;;;;;;14.60;61.34;100962.91;5072000;28;20027;-48
2021/05/25 00:55:28;;;;;;;3.55;1.80;;;;;;;14.56;62.20;100961.84;5073715;28;20036;-49
2021/05/25 00:57:55;;;;;;;4.60;2.22;;;;;;;14.64;61.00;100960.47;5074312;28;20436;-49
2021/05/25 01:00:26;;;;;;;2.60;1.83;;;;;;;14.65;61.15;100954.81;5072625;28;20490;-48
2021/05/25 01:02:52;;;;;;;3.50;2.17;;;;;;;14.62;61.38;100955.34;5073247;28;20025;-50
2021/05/25 01:05:18;;;;;;;3.65;1.83;;;;;;;14.60;61.42;100952.13;5074460;28;20054;-52
2021/05/25 01:07:44;;;;;;;2.50;2.25;;;;;;;14.67;61.17;100949.94;5074793;28;20509;-48
2021/05/25 01:10:12;;;;;;;2.25;2.00;;;;;;;14.73;60.94;100951.59;5075157;28;20032;-51
2021/05/25 01:12:48;;;;;;;4.03;2.40;;;;;;;14.70;61.14;100954.81;5074418;28;20047;-50
2021/05/25 01:15:15;;;;;;;3.40;2.10;;;;;;;14.64;61.43;100957.78;5058204;28;20020;-53
2021/05/25 01:17:41;;;;;;;3.90;1.70;;;;;;;14.55;62.39;100959.41;5073304;28;20446;-51
2021/05/25 01:20:07;;;;;;;2.17;1.55;;;;;;;14.51;62.36;100959.13;5072523;28;20236;-50
2021/05/25 01:22:33;;;;;;;3.38;1.83;;;;;;;14.55;62.22;100956.72;5074086;28;20039;-49
2021/05/25 01:24:59;;;;;;;2.78;2.05;;;;;;;14.57;62.36;100962.66;5075698;28;20028;-51
2021/05/25 01:27:25;;;;;;;3.63;2.50;;;;;;;14.46;63.33;100965.31;5073397;28;20031;-48
2021/05/25 01:29:51;;;;;;;4.32;1.83;;;;;;;14.50;62.91;100962.88;5071155;28;20035;-51
2021/05/25 01:32:16;;;;;;;1.77;1.25;;;;;;;14.42;63.45;100960.72;5072586;28;20530;-48
2021/05/25 01:34:42;;;;;;;2.45;1.33;;;;;;;14.50;63.09;100957.50;5069788;28;20020;-50
2021/05/25 01:37:08;;;;;;;2.38;1.35;;;;;;;14.49;63.38;100945.91;5056501;28;20017;-49
2021/05/25 01:39:33;;;;;;;1.63;1.13;;;;;;;14.57;62.79;100952.66;5070247;28;20032;-48
2021/05/25 01:41:59;;;;;;;1.60;1.05;;;;;;;14.64;62.41;100941.59;5072780;28;20090;-52
2021/05/25 01:44:25;;;;;;;2.53;1.15;;;;;;;14.63;62.89;100948.06;5073748;28;20591;-48
2021/05/25 01:46:50;;;;;;;2.35;1.10;;;;;;;14.55;63.07;100941.34;5071448;28;20027;-49
2021/05/25 01:49:21;;;;;;;2.42;1.13;;;;;;;14.64;63.01;100945.09;5071198;28;20394;-51
2021/05/25 01:51:48;;;;;;;2.22;1.20;;;;;;;14.71;62.35;100931.34;5070753;28;20105;-52
2021/05/25 01:54:15;;;;;;;2.42;1.23;;;;;;;14.72;62.43;100938.34;5073567;28;20046;-48
2021/05/25 01:56:41;;;;;;;5.00;1.20;;;;;;;14.61;62.78;100936.75;5070873;28;20085;-49
2021/05/25 01:59:06;;;;;;;0.88;0.88;;;;;;;14.68;62.54;100938.09;5070751;28;20036;-53
2021/05/25 02:01:32;;;;;;;1.35;1.15;;;;;;;14.66;62.84;100948.34;5069945;28;20039;-49
2021/05/25 02:03:57;;;;;;;1.73;0.90;;;;;;;14.65;62.74;100944.03;5070623;28;20029;-48
2021/05/25 02:06:23;;;;;;;1.08;0.88;;;;;;;14.63;62.70;100951.59;5069059;28;20599;-52
2021/05/25 02:08:48;;;;;;;2.15;1.00;;;;;;;14.62;62.74;100952.66;5071190;28;20496;-49
2021/05/25 02:11:14;;;;;;;3.88;1.00;;;;;;;14.67;62.63;100960.75;5070174;28;20032;-49
2021/05/25 02:13:40;;;;;;;2.03;1.10;;;;;;;14.60;63.43;100957.53;5069770;28;20439;-48
2021/05/25 02:16:08;;;;;;;3.42;1.20;;;;;;;14.64;63.23;100960.47;5068454;28;20024;-48
2021/05/25 02:18:44;;;;;;;3.88;1.00;;;;;;;14.67;63.34;100960.75;5072120;28;20267;-48
2021/05/25 02:21:12;;;;;;;1.85;1.00;;;;;;;14.63;63.87;100966.94;5069952;28;20029;-48
2021/05/25 02:23:38;;;;;;;3.97;1.10;;;;;;;14.65;63.54;100957.50;5072977;28;20177;-49
2021/05/25 02:26:07;;;;;;;4.75;1.20;;;;;;;14.65;63.57;100949.41;5071018;28;20534;-48
2021/05/25 02:28:33;;;;;;;2.03;1.20;;;;;;;14.46;64.49;100954.53;5069311;28;20031;-51
2021/05/25 02:30:59;;;;;;;2.40;1.10;;;;;;;14.53;64.15;100954.25;5069546;28;20032;-51
2021/05/25 02:33:25;;;;;;;1.20;1.08;;;;;;;14.60;63.36;100945.91;5070290;28;20032;-51
2021/05/25 02:35:52;;;;;;;1.63;1.00;;;;;;;14.61;63.33;100950.25;5071493;28;20039;-52
2021/05/25 02:38:18;;;;;;;2.85;1.05;;;;;;;14.63;62.88;100942.69;5068931;28;20093;-51
2021/05/25 02:40:46;;;;;;;2.65;1.40;;;;;;;14.60;63.80;100935.13;5071200;28;20033;-48
2021/05/25 02:43:14;;;;;;;2.88;0.90;;;;;;;14.54;63.54;100899.25;5068937;28;20114;-49
2021/05/25 02:45:40;;;;;;;2.08;1.20;;;;;;;14.36;64.99;100902.47;5069564;28;20029;-51
2021/05/25 02:48:06;;;;;;;2.42;1.10;;;;;;;14.40;64.74;100911.66;5070562;28;20103;-48
2021/05/25 02:50:32;;;;;;;2.53;1.00;;;;;;;14.25;66.25;100919.72;5069032;28;20074;-49
2021/05/25 02:52:58;;;;;;;2.30;1.25;;;;;;;14.12;66.64;100929.13;5069442;28;20374;-51
2021/05/25 02:55:29;;;;;;;3.03;1.10;;;;;;;14.04;66.97;100926.97;5072115;28;20614;-50
2021/05/25 02:57:57;;;;;;;2.78;1.13;;;;;;;13.98;67.14;100942.28;5068888;28;20116;-48
2021/05/25 03:00:27;;;;;;;2.97;1.23;;;;;;;13.95;67.18;100955.50;5069528;28;20032;-50
2021/05/25 03:02:53;;;;;;;3.33;1.40;;;;;;;13.90;66.96;100948.22;5075906;28;20107;-51
2021/05/25 03:05:22;;;;;;;4.25;1.27;;;;;;;13.95;66.42;100956.31;5072833;28;20429;-48
2021/05/25 03:07:49;;;;;;;2.50;1.05;;;;;;;13.92;66.78;100962.22;5073778;28;20103;-49
2021/05/25 03:10:17;;;;;;;3.65;1.27;;;;;;;13.77;67.27;100948.69;5071930;28;20035;-50
2021/05/25 03:12:44;;;;;;;1.27;0.95;;;;;;;13.82;67.13;100954.09;5070543;28;20067;-50
2021/05/25 03:15:15;;;;;;;2.25;1.27;;;;;;;13.66;67.92;100950.56;5069441;28;20024;-48
2021/05/25 03:17:41;;;;;;;2.75;1.15;;;;;;;13.75;67.29;100956.22;5071213;28;20383;-49
2021/05/25 03:20:09;;;;;;;2.95;1.10;;;;;;;13.76;67.23;100957.84;5072833;28;20028;-49
2021/05/25 03:22:34;;;;;;;3.38;1.02;;;;;;;13.80;66.93;100951.66;5070546;28;20032;-48
2021/05/25 03:25:00;;;;;;;1.88;0.98;;;;;;;13.73;67.42;100953.81;5071720;28;20033;-48
2021/05/25 03:27:26;;;;;;;1.55;1.00;;;;;;;13.68;67.51;100953.00;5072203;28;20036;-49
2021/05/25 03:29:52;;;;;;;3.40;1.65;;;;;;;13.71;67.27;100955.16;5070075;28;20036;-51
2021/05/25 03:32:18;;;;;;;3.05;1.30;;;;;;;13.72;67.22;100967.53;5070454;28;20024;-49
2021/05/25 03:34:43;;;;;;;1.13;0.95;;;;;;;13.66;67.50;100964.03;5069227;28;20552;-48
2021/05/25 03:37:09;;;;;;;2.38;1.20;;;;;;;13.68;67.15;100953.00;5070019;28;20100;-49
2021/05/25 03:39:35;;;;;;;2.30;1.13;;;;;;;13.65;67.54;100948.94;5058759;28;20039;-48
2021/05/25 03:42:00;;;;;;;2.15;1.15;;;;;;;13.76;66.88;100947.88;5069615;28;20067;-50
2021/05/25 03:44:27;;;;;;;1.98;1.10;;;;;;;13.76;66.87;100952.47;5055771;28;20064;-51
2021/05/25 03:46:52;;;;;;;1.42;1.23;;;;;;;13.79;66.62;100952.75;5070010;28;20452;-52
2021/05/25 03:49:18;;;;;;;1.17;0.95;;;;;;;13.68;67.38;100951.09;5068966;28;20028;-48
2021/05/25 03:51:43;;;;;;;1.30;0.98;;;;;;;13.57;68.09;100952.94;5069526;28;20033;-49
2021/05/25 03:54:14;;;;;;;3.58;1.27;;;;;;;13.54;67.83;100948.09;5070450;28;20021;-50
2021/05/25 03:56:55;;;;;;;2.72;1.20;;;;;;;13.46;68.38;100948.56;5071090;28;20094;-49
2021/05/25 03:59:21;;;;;;;2.45;1.20;;;;;;;13.46;68.09;100940.50;5069204;28;21008;-48
2021/05/25 04:01:46;;;;;;;1.33;1.10;;;;;;;13.33;68.99;100943.69;5068873;28;20036;-51
2021/05/25 04:04:12;;;;;;;2.58;1.00;;;;;;;13.32;69.03;100941.25;5070157;28;20071;-48
2021/05/25 04:06:41;;;;;;;1.58;1.00;;;;;;;13.30;69.22;100941.50;5070207;28;20047;-50
2021/05/25 04:09:08;;;;;;;1.50;0.90;;;;;;;13.23;69.62;100938.22;5073664;28;20059;-49
2021/05/25 04:11:35;;;;;;;2.95;1.35;;;;;;;13.27;69.36;100939.31;5056076;28;20107;-48
2021/05/25 04:14:01;;;;;;;2.38;1.13;;;;;;;13.38;68.92;100941.00;5072582;28;20666;-49
2021/05/25 04:16:27;;;;;;;2.45;1.30;;;;;;;13.37;69.21;100934.00;5071194;28;20040;-49
2021/05/25 04:18:52;;;;;;;3.38;1.30;;;;;;;13.44;68.80;100936.44;5077162;28;20026;-49
2021/05/25 04:21:18;;;;;;;4.20;1.10;;;;;;;13.53;68.17;100940.28;5072369;28;20553;-51
2021/05/25 04:23:43;;;;;;;1.83;1.10;;;;;;;13.51;68.78;100932.47;5070560;28;20078;-49
2021/05/25 04:26:09;;;;;;;1.73;1.20;;;;;;;13.71;67.64;100950.56;5071548;28;20541;-50
2021/05/25 04:28:35;;;;;;;1.42;1.13;;;;;;;13.75;67.81;100940.88;5075501;28;20050;-49
2021/05/25 04:31:01;;;;;;;3.38;1.10;;;;;;;13.61;68.38;100940.56;5070410;28;20028;-49
2021/05/25 04:33:26;;;;;;;3.55;1.20;;;;;;;13.73;67.92;100940.34;5072847;28;20370;-53
2021/05/25 04:35:52;;;;;;;2.42;1.25;;;;;;;13.73;68.19;100944.91;5072590;28;20032;-49
2021/05/25 04:38:18;;;;;;;2.95;0.95;;;;;;;13.77;67.65;100933.34;5070421;28;20160;-48
2021/05/25 04:40:45;;;;;;;1.35;1.25;;;;;;;13.63;68.58;100939.47;5072014;28;20379;-50
2021/05/25 04:43:11;;;;;;;1.73;1.02;;;;;;;13.53;69.37;100930.31;5071384;28;20032;-49
2021/05/25 04:45:39;;;;;;;3.38;1.40;;;;;;;13.60;69.26;100932.75;5072014;28;20031;-50
2021/05/25 04:48:06;;;;;;;1.85;0.90;;;;;;;13.63;68.84;100937.59;5071137;28;20034;-49
2021/05/25 04:50:32;;;;;;;1.35;1.23;;;;;;;13.58;69.07;100943.78;5078675;28;20036;-48
2021/05/25 04:52:58;;;;;;;0.90;0.82;;;;;;;13.49;69.17;100945.38;5071435;28;20420;-51
2021/05/25 04:55:24;;;;;;;2.28;1.05;;;;;;;13.42;69.51;100952.84;5070313;28;20021;-51
2021/05/25 04:57:50;;;;;;;3.38;1.10;;;;;;;13.32;70.18;100958.22;5071359;28;20078;-48
2021/05/25 05:00:19;;;;;;;1.35;0.90;;;;;;;13.29;69.90;100967.63;5071881;28;20474;-48
2021/05/25 05:02:44;;;;;;;3.17;0.95;;;;;;;13.41;69.27;100970.09;5071956;28;20028;-49
2021/05/25 05:05:11;;;;;;;1.98;0.90;;;;;;;13.32;69.97;100974.34;5066460;28;20474;-49
2021/05/25 05:07:37;;;;;;;4.13;1.40;;;;;;;13.24;70.03;100985.59;5071337;28;20068;-48
2021/05/25 05:10:05;;;;;;;2.42;1.02;;;;;;;13.32;68.86;100989.69;5069613;28;20059;-48
2021/05/25 05:12:31;;;;;;;2.88;1.02;;;;;;;13.34;69.43;100990.25;5068388;28;20132;-51
2021/05/25 05:14:57;;;;;;;3.88;1.00;;;;;;;13.41;69.45;100997.00;5073624;28;20033;-48
2021/05/25 05:17:24;;;;;;;1.25;0.98;;;;;;;13.55;68.83;101000.03;5070688;28;20394;-49
2021/05/25 05:19:50;;;;;;;2.80;0.90;;;;;;;13.53;69.19;100994.91;5066058;28;20624;-49
2021/05/25 05:22:16;;;;;;;2.10;0.95;;;;;;;13.56;69.26;100985.50;5067569;28;20505;-53
2021/05/25 05:24:41;;;;;;;1.60;0.90;;;;;;;13.44;70.25;100985.69;5053655;28;20029;-48
2021/05/25 05:27:07;;;;;;;2.70;1.50;;;;;;;13.55;69.33;100986.56;5067649;28;20089;-52
2021/05/25 05:29:33;;;;;;;1.40;0.85;;;;;;;13.42;70.41;100981.66;5070627;28;20032;-50
2021/05/25 05:31:58;;;;;;;1.40;0.93;;;;;;;13.60;69.62;100990.09;5073411;28;20035;-49
2021/05/25 05:34:24;;;;;;;1.40;0.95;;;;;;;13.96;67.83;100989.44;5073459;28;20528;-49
2021/05/25 05:36:49;;;;;;;1.80;0.80;;;;;;;14.01;67.72;100992.97;5072691;28;20062;-48
2021/05/25 05:39:15;;;;;;;1.80;0.70;;;;;;;13.97;67.64;100991.84;5070724;28;20508;-48
2021/05/25 05:41:40;;;;;;;2.45;1.00;;;;;;;14.09;67.55;100995.13;5071390;28;20485;-48
2021/05/25 05:44:06;;;;;;;3.17;0.95;;;;;;;13.93;68.31;101004.25;5072966;28;20032;-50
2021/05/25 05:46:31;;;;;;;0.75;0.75;;;;;;;13.99;68.72;101005.88;5072091;28;20086;-49
2021/05/25 05:48:57;;;;;;;4.25;1.00;;;;;;;13.89;69.28;101009.34;5074053;28;20022;-52
2021/05/25 05:51:23;;;;;;;3.58;1.00;;;;;;;13.73;70.16;101023.81;5072984;28;20105;-51
2021/05/25 05:53:49;;;;;;;2.17;0.90;;;;;;;13.72;70.85;101027.59;5069460;28;20020;-51
2021/05/25 05:56:18;;;;;;;1.00;0.90;;;;;;;13.47;72.58;101030.97;5067935;28;20486;-48
2021/05/25 05:58:46;;;;;;;2.67;0.90;;;;;;;13.43;72.73;101026.34;5071310;28;20127;-48
2021/05/25 06:01:13;;;;;;;2.08;1.17;;;;;;;13.45;73.24;101037.66;5074681;28;20032;-49
2021/05/25 06:03:39;;;;;;;5.00;1.27;;;;;;;13.49;74.54;101034.22;5069625;28;20036;-48
2021/05/25 06:06:05;;;;;;;3.08;1.48;;;;;;;13.57;75.27;101049.03;5055684;28;20055;-50
2021/05/25 06:08:31;;;;;;;2.42;1.15;;;;;;;13.58;75.16;101056.03;5071277;28;20028;-48
2021/05/25 06:10:56;;;;;;;2.40;1.00;;;;;;;13.47;74.50;101047.13;5070068;28;20029;-48
2021/05/25 06:13:25;;;;;;;2.08;1.08;;;;;;;13.34;74.66;101049.44;5070010;28;20028;-48
2021/05/25 06:15:54;;;;;;;2.55;1.00;;;;;;;13.56;73.03;101048.22;5069871;28;20022;-48
2021/05/25 06:18:20;;;;;;;1.35;0.75;;;;;;;13.60;72.63;101041.25;5069383;28;20474;-48
2021/05/25 06:20:46;;;;;;;2.70;1.10;;;;;;;13.63;72.58;101044.50;5070559;28;20032;-48
2021/05/25 06:23:11;;;;;;;1.40;1.08;;;;;;;13.64;72.22;101055.00;5071216;28;20024;-48
2021/05/25 06:25:37;;;;;;;2.60;1.00;;;;;;;13.49;72.77;101049.53;5068616;28;20055;-48
2021/05/25 06:28:03;;;;;;;2.22;0.85;;;;;;;13.53;72.04;101056.03;5070024;28;20462;-49
2021/05/25 06:30:31;;;;;;;2.05;0.80;;;;;;;13.47;71.69;101047.13;5061480;28;20032;-48
2021/05/25 06:32:57;;;;;;;1.30;0.90;;;;;;;13.35;71.47;101059.94;5069541;28;20508;-49
2021/05/25 06:35:22;;;;;;;1.00;0.90;;;;;;;13.46;70.91;101058.13;5067692;28;20024;-48
2021/05/25 06:37:48;;;;;;;0.80;0.80;;;;;;;13.29;71.96;101075.25;5066236;28;20024;-48
2021/05/25 06:40:14;;;;;;;3.50;1.05;;;;;;;13.32;71.53;101078.50;5065537;28;20397;-48
2021/05/25 06:42:39;;;;;;;2.40;1.02;;;;;;;13.29;71.60;101077.13;5066762;28;20020;-48
2021/05/25 06:45:06;;;;;;;2.03;1.20;;;;;;;13.32;71.19;101087.38;5067169;28;20031;-48
2021/05/25 06:47:31;;;;;;;1.20;0.70;;;;;;;13.48;70.62;101091.81;5066641;28;20115;-48
2021/05/25 06:49:57;;;;;;;1.77;1.00;;;;;;;13.36;71.53;101093.06;5066920;28;20076;-48
2021/05/25 06:52:23;;;;;;;1.02;0.90;;;;;;;13.29;71.61;101095.97;5066830;28;20025;-48
2021/05/25 06:54:48;;;;;;;1.67;1.00;;;;;;;13.25;71.57;101092.16;5065346;28;20489;-48
2021/05/25 06:57:14;;;;;;;2.30;1.05;;;;;;;13.43;71.05;101099.81;5067546;28;20119;-49
2021/05/25 06:59:39;;;;;;;2.88;1.15;;;;;;;13.35;72.04;101097.63;5066829;28;20029;-48
2021/05/25 07:02:05;;;;;;;2.33;0.90;;;;;;;13.26;72.59;101099.16;5067771;28;20024;-48
2021/05/25 07:04:30;;;;;;;2.30;1.20;;;;;;;13.46;72.42;101098.50;5066723;28;20028;-48
2021/05/25 07:06:56;;;;;;;2.80;1.30;;;;;;;13.46;72.88;101102.00;5067407;28;20043;-47
2021/05/25 07:09:22;;;;;;;2.15;1.25;;;;;;;13.61;74.04;101101.28;5068104;28;20032;-50
2021/05/25 07:11:47;;;;;;;1.85;1.30;;;;;;;13.57;74.79;101114.47;5069049;28;20073;-48
2021/05/25 07:14:13;;;;;;;1.60;1.48;;;;;;;13.50;75.15;101113.06;5069883;28;20551;-47
2021/05/25 07:16:39;;;;;;;3.15;1.48;;;;;;;13.49;76.02;101122.22;5068464;28;20445;-48
2021/05/25 07:19:05;;;;;;;3.17;1.55;;;;;;;13.51;76.29;101112.00;5066992;28;20020;-48
2021/05/25 07:21:30;;;;;;;4.85;1.67;;;;;;;13.53;75.77;101110.69;5070781;28;20024;-49
2021/05/25 07:23:56;;;;;;;1.70;1.40;;;;;;;13.46;76.23;101114.63;5046268;28;20031;-47
2021/05/25 07:26:22;;;;;;;2.72;1.33;;;;;;;13.51;76.87;101117.38;5066483;28;20401;-48
2021/05/25 07:28:48;;;;;;;2.88;1.60;;;;;;;13.48;77.24;101112.53;5045323;28;20032;-48
2021/05/25 07:31:15;;;;;;;3.30;1.63;;;;;;;13.63;76.62;101107.22;5064670;28;20138;-48
2021/05/25 07:33:40;;;;;;;5.63;1.88;;;;;;;13.72;75.62;101110.25;5063975;28;20062;-47
2021/05/25 07:36:06;;;;;;;3.72;1.88;;;;;;;13.71;76.11;101109.44;5065339;28;20059;-47
2021/05/25 07:38:31;;;;;;;3.80;1.80;;;;;;;13.97;74.64;101120.34;5066142;28;20036;-48
2021/05/25 07:40:57;;;;;;;3.03;1.80;;;;;;;14.18;74.45;101116.69;5069532;28;20302;-48
2021/05/25 07:43:23;;;;;;;3.72;1.33;;;;;;;14.23;73.71;101124.81;5070626;28;20032;-47
2021/05/25 07:45:49;;;;;;;3.50;2.00;;;;;;;14.19;74.43;101119.13;5062400;28;20040;-48
2021/05/25 07:48:15;;;;;;;2.92;1.73;;;;;;;14.07;75.15;101120.41;5071373;28;20494;-47
2021/05/25 07:50:41;;;;;;;2.53;1.55;;;;;;;14.01;75.61;101130.38;5066831;28;20075;-47
2021/05/25 07:53:07;;;;;;;2.75;1.42;;;;;;;14.00;72.65;101119.81;5068967;28;20111;-48
2021/05/25 07:55:33;;;;;;;3.22;1.55;;;;;;;14.00;72.57;101123.34;5068304;28;20031;-48
2021/05/25 07:57:59;;;;;;;4.10;1.90;;;;;;;14.00;72.14;101117.94;5070399;28;20017;-48
2021/05/25 08:00:27;;;;;;;4.50;1.80;;;;;;;13.97;69.75;101121.16;5072937;28;20058;-48
2021/05/25 08:02:54;;;;;;;2.50;1.45;;;;;;;14.28;70.38;101116.75;5070159;28;20111;-49
2021/05/25 08:05:20;;;;;;;3.10;1.20;;;;;;;14.64;67.91;101130.38;5068008;28;20032;-48
2021/05/25 08:07:46;;;;;;;3.80;1.20;;;;;;;14.48;67.21;101134.91;5070256;28;20051;-48
2021/05/25 08:10:13;;;;;;;2.10;1.00;;;;;;;14.54;67.02;101133.03;5073514;28;20031;-49
2021/05/25 08:12:39;;;;;;;1.67;1.10;;;;;;;14.27;66.94;101136.69;5063425;28;20085;-48
2021/05/25 08:15:07;;;;;;;2.00;0.85;;;;;;;13.87;66.35;101131.91;5071055;28;20284;-49
2021/05/25 08:22:42;;;;;;;2.63;1.00;;;;;;;13.78;68.13;101130.75;5068852;28;21780;-48
2021/05/25 08:25:09;;;;;;;2.65;1.25;;;;;;;13.83;68.21;101137.00;5070562;28;20024;-48
2021/05/25 08:27:35;;;;;;;1.50;1.17;;;;;;;13.80;68.68;101136.69;5072920;28;20028;-48
2021/05/25 08:30:02;;;;;;;3.10;1.27;;;;;;;13.77;69.59;101142.59;5069694;28;20028;-48
2021/05/25 08:32:27;;;;;;;1.73;1.00;;;;;;;13.87;68.53;101134.59;5072201;28;20118;-48
2021/05/25 08:34:53;;;;;;;1.17;0.95;;;;;;;14.12;67.32;101142.81;5069486;28;20494;-48
2021/05/25 08:37:18;;;;;;;1.95;1.15;;;;;;;14.06;67.36;101135.78;5069834;28;20027;-48
2021/05/25 08:39:44;;;;;;;2.13;1.13;;;;;;;13.88;67.20;101153.19;5072470;28;20032;-48
2021/05/25 08:42:10;;;;;;;2.20;1.02;;;;;;;13.73;66.87;101154.97;5068173;28;20024;-48
2021/05/25 08:44:35;;;;;;;1.40;0.93;;;;;;;13.65;67.52;101150.06;5070432;28;20032;-48
2021/05/25 08:47:01;;;;;;;2.67;1.10;;;;;;;13.56;67.64;101147.84;5056441;28;20115;-48
2021/05/25 08:49:28;;;;;;;1.67;1.08;;;;;;;13.53;68.57;101147.56;5071606;28;20045;-50
2021/05/25 08:51:54;;;;;;;1.40;1.25;;;;;;;13.74;68.08;101145.81;5070624;28;20032;-48
2021/05/25 08:54:19;;;;;;;1.95;1.20;;;;;;;14.07;67.24;101144.66;5071933;28;20554;-48
2021/05/25 08:56:44;;;;;;;3.42;1.45;;;;;;;14.06;67.79;101149.25;5070944;28;20054;-48
2021/05/25 08:59:10;;;;;;;2.47;1.50;;;;;;;14.14;67.98;101151.44;5068377;28;20033;-48
2021/05/25 09:01:36;;;;;;;2.35;1.00;;;;;;;14.02;67.09;101148.16;5070996;28;20039;-48
2021/05/25 09:04:04;;;;;;;1.60;1.10;;;;;;;14.11;66.08;101156.53;5069804;28;20462;-49
2021/05/25 09:06:37;;;;;;;2.95;1.20;;;;;;;14.19;65.40;101156.06;5071405;28;20024;-48
2021/05/25 09:09:13;;;;;;;0.93;0.80;;;;;;;14.39;64.08;101164.25;5072406;28;20046;-48
2021/05/25 09:12:04;;;;;;;1.13;0.90;;;;;;;14.68;63.26;101156.53;5069103;28;20032;-48
2021/05/25 09:14:34;;;;;;;1.77;0.90;;;;;;;14.69;63.28;101155.47;5071263;28;20024;-48
2021/05/25 09:17:23;;;;;;;6.85;1.20;;;;;;;14.14;63.78;101159.50;5069366;28;20209;-48
2021/05/25 09:19:54;;;;;;;1.52;0.80;;;;;;;14.03;63.75;101151.66;5056385;28;20024;-48
2021/05/25 09:22:35;;;;;;;1.67;1.17;;;;;;;14.07;64.19;101147.38;5069988;28;20021;-48
2021/05/25 09:25:21;;;;;;;1.75;1.10;;;;;;;13.97;65.11;101160.75;5070759;28;20048;-47
2021/05/25 09:27:59;;;;;;;2.63;0.90;;;;;;;13.91;63.55;101166.13;5073564;28;20074;-48
2021/05/25 09:30:26;;;;;;;2.42;0.70;;;;;;;14.19;61.96;101151.47;5070686;28;20031;-48
2021/05/25 09:33:01;;;;;;;1.80;0.90;;;;;;;13.99;61.31;101145.16;5072461;28;20025;-48
2021/05/25 09:35:35;;;;;;;0.77;0.70;;;;;;;14.27;60.32;101139.38;5070148;28;20028;-48
2021/05/25 09:38:11;;;;;;;4.70;0.98;;;;;;;14.37;59.76;101146.72;5076365;28;20023;-48
2021/05/25 09:40:38;;;;;;;1.73;0.70;;;;;;;14.57;59.14;101140.59;5074650;28;20032;-48
2021/05/25 09:43:11;;;;;;;1.52;0.90;;;;;;;14.43;59.01;101141.09;5072640;28;20062;-48
2021/05/25 09:45:37;;;;;;;2.22;0.90;;;;;;;14.50;59.33;101162.41;5070689;28;20032;-48
2021/05/25 09:48:04;;;;;;;1.67;0.98;;;;;;;14.30;58.40;101173.88;5075152;28;20072;-47
2021/05/25 09:50:30;;;;;;;2.97;0.90;;;;;;;14.16;58.92;101168.16;5073232;28;20091;-48
2021/05/25 09:53:10;;;;;;;2.63;0.70;;;;;;;14.12;58.93;101171.63;5059482;28;20492;-48
2021/05/25 09:55:53;;;;;;;2.42;0.80;;;;;;;14.24;59.03;101148.00;5057432;28;20075;-48
2021/05/25 09:58:22;;;;;;;1.73;0.77;;;;;;;14.16;58.70;101143.09;5067579;28;20470;-49
2021/05/25 10:00:48;;;;;;;0.85;0.77;;;;;;;14.31;58.27;101137.78;5069823;28;20225;-48
2021/05/25 10:03:16;;;;;;;2.17;0.82;;;;;;;14.42;57.08;101144.03;5067909;28;20020;-48
2021/05/25 10:05:53;;;;;;;2.67;0.65;;;;;;;14.43;56.73;101156.44;5068167;28;20034;-48
2021/05/25 10:08:22;;;;;;;0.80;0.70;;;;;;;14.94;56.15;101168.22;5066205;28;20462;-50
2021/05/25 10:10:49;;;;;;;3.03;0.65;;;;;;;15.24;55.81;101172.84;5067696;28;20111;-48
2021/05/25 10:13:16;;;;;;;2.92;0.80;;;;;;;15.24;55.13;101170.13;5066912;28;20024;-49
2021/05/25 10:15:43;;;;;;;0.68;0.65;;;;;;;15.07;55.74;101177.66;5066360;28;20028;-48
2021/05/25 10:20:55;;;;;;;1.20;0.80;;;;;;;14.77;55.57;101186.53;5041161;28;20052;-48
2021/05/25 10:23:22;;;;;;;1.27;0.80;;;;;;;14.97;54.47;101167.69;5066087;28;20058;-48
2021/05/25 10:25:52;;;;;;;1.40;0.60;;;;;;;15.04;54.45;101160.13;5068741;28;20051;-48
2021/05/25 10:28:18;;;;;;;2.10;1.00;;;;;;;15.62;52.39;101162.63;5063484;28;20051;-48
2021/05/25 10:30:50;;;;;;;1.30;0.88;;;;;;;15.73;51.15;101169.63;5056954;28;20034;-48
2021/05/25 10:33:22;;;;;;;0.88;0.50;;;;;;;15.85;51.06;101174.75;5066454;28;20209;-49
2021/05/25 10:36:01;;;;;;;0.57;0.57;;;;;;;16.27;48.92;101179.78;5070072;28;20038;-48
2021/05/25 10:38:43;;;;;;;2.00;0.80;;;;;;;16.07;49.02;101169.84;5065640;28;20036;-49
2021/05/25 10:41:21;;;;;;;1.17;0.50;;;;;;;15.89;50.24;101168.53;5070513;28;20028;-48
2021/05/25 10:43:47;;;;;;;2.25;0.70;;;;;;;15.87;50.40;101175.28;5068596;28;20687;-48
2021/05/25 10:46:13;;;;;;;2.25;0.80;;;;;;;15.52;50.89;101173.41;5070156;28;20035;-48
2021/05/25 10:51:46;;;;;;;1.48;0.70;;;;;;;15.65;51.16;101175.59;5068308;28;20055;-48
2021/05/25 10:54:32;;;;;;;3.97;0.77;;;;;;;15.87;51.24;101170.69;5070623;28;20028;-47
2021/05/25 10:57:03;;;;;;;3.00;0.60;;;;;;;16.10;50.32;101185.50;5065813;28;20027;-48
2021/05/25 10:59:48;;;;;;;2.50;0.63;;;;;;;16.26;49.80;101188.97;5068286;28;20555;-47
2021/05/25 11:02:14;;;;;;;1.63;0.50;;;;;;;16.18;49.45;101182.25;5069246;28;20492;-48
2021/05/25 11:04:39;;;;;;;2.08;0.57;;;;;;;16.24;49.11;101174.94;5066192;28;20142;-48
2021/05/25 11:07:35;;;;;;;1.13;0.50;;;;;;;16.49;48.23;101180.25;5065385;28;20025;-48
2021/05/25 11:10:33;;;;;;;2.47;0.75;;;;;;;16.72;46.59;101181.53;5069344;28;20047;-48
2021/05/25 11:13:25;;;;;;;0.68;0.60;;;;;;;16.47;47.04;101157.25;5053068;28;20371;-48
2021/05/25 11:16:27;;;;;;;1.30;0.60;;;;;;;16.97;46.31;101167.03;5066822;28;20024;-48
2021/05/25 11:19:21;;;;;;;1.80;0.80;;;;;;;16.93;45.45;101168.69;5053951;28;20608;-49
2021/05/25 11:27:07;;;;;;;1.05;0.50;;;;;;;16.36;45.69;101159.22;5063992;28;20111;-48
2021/05/25 11:29:51;;;;;;;2.42;0.43;;;;;;;15.93;45.97;101158.78;5068324;28;20025;-48
2021/05/25 11:32:24;;;;;;;3.63;0.60;;;;;;;15.99;45.30;101167.72;5066300;28;20047;-48
2021/05/25 11:35:06;;;;;;;0.77;0.68;;;;;;;16.31;45.42;101161.91;5066051;28;20024;-47
2021/05/25 11:37:33;;;;;;;1.13;0.80;;;;;;;15.83;46.05;101169.63;5068989;28;20028;-48
2021/05/25 11:40:00;;;;;;;1.25;0.40;;;;;;;15.90;45.78;101180.16;5052243;28;20043;-47
2021/05/25 11:42:29;;;;;;;2.35;0.75;;;;;;;16.15;45.60;101177.38;5066610;28;20090;-48
2021/05/25 11:44:55;;;;;;;1.45;0.80;;;;;;;15.98;45.53;101166.91;5065768;28;20479;-48